Blackall Airport


Codes: YBCK/BKQ
Name: Blackall Airport
City: Blackall
Country: Australia
Elevation: 928 ft.
Wikipedia:

Photos at Blackall Airport


   Photos courtesy of SpottingLog. You can add your own sightings and photos by signing up for a free trial today.



No photos found.

Weather at Blackall Airport


Time (UTC)DescriptionTempratureWindCloud coverageVisibilityPressureHumidity
21-Jun-2024 12:00Overcast Clouds16°C11 mph, S100%10000m1021hPa32%
21-Jun-2024 15:00Broken Clouds14°C11 mph, S80%10000m1021hPa37%
21-Jun-2024 18:00Broken Clouds11°C11 mph, SE71%10000m1022hPa45%
21-Jun-2024 21:00Scattered Clouds9°C11 mph, SE33%10000m1023hPa52%
22-Jun-2024 00:00Few Clouds16°C18 mph, SE18%10000m1023hPa34%
22-Jun-2024 03:00Clear Sky20°C13 mph, SE0%10000m1020hPa23%
22-Jun-2024 06:00Clear Sky20°C13 mph, S0%10000m1019hPa22%
22-Jun-2024 09:00Clear Sky14°C13 mph, S0%10000m1021hPa34%
22-Jun-2024 12:00Clear Sky12°C13 mph, SE0%10000m1022hPa45%
22-Jun-2024 15:00Clear Sky10°C13 mph, SE0%10000m1022hPa52%
22-Jun-2024 18:00Clear Sky9°C11 mph, SE0%10000m1021hPa59%
22-Jun-2024 21:00Clear Sky7°C11 mph, SE0%10000m1023hPa65%
23-Jun-2024 00:00Clear Sky15°C13 mph, SE0%10000m1022hPa39%
23-Jun-2024 03:00Clear Sky20°C11 mph, SE0%10000m1019hPa20%
23-Jun-2024 06:00Clear Sky20°C11 mph, SE0%10000m1017hPa17%
23-Jun-2024 09:00Clear Sky14°C11 mph, SE0%10000m1019hPa30%
23-Jun-2024 12:00Clear Sky12°C11 mph, SE0%10000m1019hPa46%
23-Jun-2024 15:00Clear Sky10°C11 mph, SE1%10000m1018hPa55%
23-Jun-2024 18:00Clear Sky9°C9 mph, E5%10000m1018hPa43%
23-Jun-2024 21:00Few Clouds8°C9 mph, E17%10000m1019hPa44%
24-Jun-2024 00:00Clear Sky17°C11 mph, NE9%10000m1018hPa29%
24-Jun-2024 03:00Clear Sky22°C9 mph, N0%10000m1015hPa20%
24-Jun-2024 06:00Clear Sky22°C4 mph, NW0%10000m1013hPa22%
24-Jun-2024 09:00Clear Sky15°C2 mph, SE0%10000m1015hPa36%
24-Jun-2024 12:00Scattered Clouds16°C9 mph, SE34%10000m1015hPa31%
24-Jun-2024 15:00Overcast Clouds15°C9 mph, NE100%10000m1015hPa26%
24-Jun-2024 18:00Broken Clouds13°C9 mph, NE84%10000m1015hPa32%
24-Jun-2024 21:00Light Rain14°C16 mph, NE94%10000m1015hPa65%
25-Jun-2024 00:00Light Rain19°C22 mph, NE95%10000m1016hPa56%
25-Jun-2024 03:00Light Rain23°C20 mph, N100%10000m1013hPa49%
25-Jun-2024 06:00Light Rain24°C18 mph, N100%10000m1012hPa49%
25-Jun-2024 09:00Overcast Clouds19°C13 mph, W100%10000m1014hPa63%
25-Jun-2024 12:00Light Rain16°C7 mph, S83%10000m1017hPa59%
25-Jun-2024 15:00Scattered Clouds14°C9 mph, S36%10000m1018hPa52%
25-Jun-2024 18:00Few Clouds12°C9 mph, S18%10000m1019hPa62%
25-Jun-2024 21:00Clear Sky11°C9 mph, S0%10000m1020hPa73%
26-Jun-2024 00:00Clear Sky18°C9 mph, SE0%10000m1021hPa53%
26-Jun-2024 03:00Clear Sky22°C7 mph, SE1%10000m1018hPa36%
26-Jun-2024 06:00Clear Sky23°C7 mph, S2%10000m1017hPa34%
26-Jun-2024 09:00Clear Sky18°C11 mph, S3%10000m1018hPa39%